createdAt,value
2019-03-06T00:01:46.178Z,100362.30
2019-03-06T00:04:16.698Z,100363.39
2019-03-06T00:06:48.759Z,100361.25
2019-03-06T00:09:19.291Z,100370.03
2019-03-06T00:11:49.822Z,100362.27
2019-03-06T00:14:20.337Z,100371.83
2019-03-06T00:16:52.114Z,100376.74
2019-03-06T00:19:22.640Z,100377.16
2019-03-06T00:21:53.184Z,100381.05
2019-03-06T00:24:25.858Z,100378.44
2019-03-06T00:26:56.386Z,100381.05
2019-03-06T00:29:26.903Z,100385.57
2019-03-06T00:31:57.447Z,100394.22
2019-03-06T00:34:27.960Z,100389.37
2019-03-06T00:36:59.724Z,100386.48
2019-03-06T00:39:33.125Z,100390.77
2019-03-06T00:42:05.393Z,100387.25
2019-03-06T00:44:36.844Z,100394.88
2019-03-06T00:47:08.300Z,100397.13
2019-03-06T00:49:40.096Z,100395.69
2019-03-06T00:52:11.545Z,100392.08
2019-03-06T00:54:42.986Z,100394.89
2019-03-06T00:57:14.446Z,100399.71
2019-03-06T00:59:44.966Z,100403.41
2019-03-06T01:02:15.247Z,100402.38
2019-03-06T01:04:45.721Z,100405.59
2019-03-06T01:07:17.176Z,100408.52
2019-03-06T01:09:48.627Z,100411.81
2019-03-06T01:12:20.691Z,100412.40
2019-03-06T01:14:51.032Z,100423.16
2019-03-06T01:17:21.451Z,100418.53
2019-03-06T01:19:52.903Z,100419.43
2019-03-06T01:22:25.577Z,100416.19
2019-03-06T01:24:57.252Z,100418.17
2019-03-06T01:27:27.556Z,100418.17
2019-03-06T01:29:59.004Z,100420.70
2019-03-06T01:32:31.559Z,100429.75
2019-03-06T01:35:06.504Z,100429.75
2019-03-06T01:37:42.347Z,100429.34
2019-03-06T01:40:21.352Z,100435.75
2019-03-06T01:42:57.416Z,100440.75
2019-03-06T01:45:27.696Z,100414.84
2019-03-06T01:47:59.444Z,100420.75
2019-03-06T01:50:31.192Z,100436.24
2019-03-06T01:53:02.647Z,100436.24
2019-03-06T01:55:33.173Z,100439.61
2019-03-06T01:58:04.023Z,100439.61
2019-03-06T02:00:37.014Z,100454.89
2019-03-06T02:03:09.379Z,100453.27
2019-03-06T02:05:40.829Z,100456.96
2019-03-06T02:08:13.679Z,100458.84
2019-03-06T02:10:44.031Z,100458.84
2019-03-06T02:13:14.602Z,100468.36
2019-03-06T02:15:45.094Z,100465.75
2019-03-06T02:18:17.165Z,100457.41
2019-03-06T02:20:47.694Z,100472.86
2019-03-06T02:23:18.242Z,100482.72
2019-03-06T02:25:49.687Z,100481.69
2019-03-06T02:28:20.221Z,100486.64
2019-03-06T02:30:50.731Z,100489.02
2019-03-06T02:33:21.293Z,100471.13
2019-03-06T02:35:52.719Z,100471.13
2019-03-06T02:38:23.265Z,100496.00
2019-03-06T02:40:53.772Z,100496.50
2019-03-06T02:43:24.343Z,100497.20
2019-03-06T02:45:55.453Z,100493.69
2019-03-06T02:48:26.006Z,100506.56
2019-03-06T02:50:56.508Z,100506.56
2019-03-06T02:53:27.078Z,100508.27
2019-03-06T02:55:58.795Z,100516.55
2019-03-06T02:58:39.834Z,100515.31
2019-03-06T03:01:14.959Z,100511.10
2019-03-06T03:04:03.362Z,100503.44
2019-03-06T03:06:38.092Z,100527.00
2019-03-06T03:09:17.631Z,100523.02
2019-03-06T03:11:48.037Z,100523.02
2019-03-06T03:14:18.628Z,100534.27
2019-03-06T03:16:49.091Z,100541.59
2019-03-06T03:19:20.577Z,100541.59
2019-03-06T03:21:52.001Z,100550.50
2019-03-06T03:24:23.539Z,100552.30
2019-03-06T03:26:53.997Z,100552.30
2019-03-06T03:29:24.530Z,100554.52
2019-03-06T03:31:55.075Z,100562.51
2019-03-06T03:34:25.667Z,100562.51
2019-03-06T03:36:56.127Z,100562.00
2019-03-06T03:39:27.881Z,100570.23
2019-03-06T03:41:59.335Z,100569.09
2019-03-06T03:44:30.781Z,100567.73
2019-03-06T03:47:03.467Z,100573.69
2019-03-06T03:49:34.926Z,100582.06
2019-03-06T03:52:07.285Z,100582.06
2019-03-06T03:54:37.816Z,100579.31
2019-03-06T03:57:09.265Z,100563.13
2019-03-06T03:59:39.832Z,100575.72
2019-03-06T04:02:10.324Z,100561.86
2019-03-06T04:04:40.853Z,100585.55
2019-03-06T04:07:13.226Z,100587.92
2019-03-06T04:09:43.785Z,100591.05
2019-03-06T04:12:15.212Z,100590.24
2019-03-06T04:14:45.771Z,100598.07
2019-03-06T04:17:17.494Z,100598.07
2019-03-06T04:19:48.946Z,100592.75
2019-03-06T04:22:21.332Z,100601.22
2019-03-06T04:24:52.774Z,100601.22
2019-03-06T04:27:24.192Z,100617.46
2019-03-06T04:29:54.724Z,100606.05
2019-03-06T04:32:25.284Z,100602.30
2019-03-06T04:34:56.702Z,100602.30
2019-03-06T04:37:29.075Z,100626.91
2019-03-06T04:40:00.530Z,100628.48
2019-03-06T04:42:31.975Z,100640.91
2019-03-06T04:45:04.208Z,100640.91
2019-03-06T04:47:34.575Z,100641.44
2019-03-06T04:50:12.336Z,100645.91
2019-03-06T04:52:44.237Z,100646.45
2019-03-06T04:55:15.854Z,100650.02
2019-03-06T04:57:46.207Z,100654.98
2019-03-06T05:00:24.507Z,100665.47
2019-03-06T05:02:54.954Z,100663.12
2019-03-06T05:05:26.426Z,100657.91
2019-03-06T05:07:57.860Z,100664.22
2019-03-06T05:10:29.325Z,100670.74
2019-03-06T05:13:00.463Z,100670.74
2019-03-06T05:15:31.930Z,100676.25
2019-03-06T05:18:07.913Z,100674.30
2019-03-06T05:20:38.204Z,100677.05
2019-03-06T05:23:09.655Z,100680.56
2019-03-06T05:25:40.194Z,100681.75
2019-03-06T05:28:12.541Z,100683.72
2019-03-06T05:30:44.017Z,100680.45
2019-03-06T05:33:17.083Z,100683.86
2019-03-06T05:36:02.703Z,100685.16
2019-03-06T05:38:39.355Z,100691.03
2019-03-06T05:41:25.413Z,100692.55
2019-03-06T05:43:59.350Z,100696.17
2019-03-06T05:46:30.833Z,100700.33
2019-03-06T05:49:03.087Z,100703.84
2019-03-06T05:51:34.009Z,100697.93
2019-03-06T05:54:04.538Z,100702.69
2019-03-06T05:56:35.098Z,100699.78
2019-03-06T05:59:06.518Z,100701.53
2019-03-06T06:01:37.236Z,100704.89
2019-03-06T06:04:08.506Z,100706.62
2019-03-06T06:06:39.133Z,100711.73
2019-03-06T06:09:09.556Z,100708.44
2019-03-06T06:11:46.651Z,100708.37
2019-03-06T06:14:17.456Z,100715.31
2019-03-06T06:16:49.445Z,100708.56
2019-03-06T06:19:19.980Z,100708.28
2019-03-06T06:22:08.263Z,100697.66
2019-03-06T06:24:38.601Z,100696.52
2019-03-06T06:27:10.969Z,100712.02
2019-03-06T06:29:41.464Z,100713.66
2019-03-06T06:32:12.898Z,100715.81
2019-03-06T06:34:43.419Z,100707.59
2019-03-06T06:37:14.074Z,100700.69
2019-03-06T06:39:44.489Z,100702.65
2019-03-06T06:42:16.280Z,100701.24
2019-03-06T06:44:47.697Z,100692.88
2019-03-06T06:47:19.349Z,100697.54
2019-03-06T06:49:49.675Z,100695.09
2019-03-06T06:52:47.843Z,100695.27
2019-03-06T06:55:33.041Z,100700.25
2019-03-06T06:58:31.078Z,100701.71
2019-03-06T07:01:09.003Z,100706.77
2019-03-06T07:04:12.429Z,100719.47
2019-03-06T07:06:49.996Z,100720.40
2019-03-06T07:09:22.104Z,100716.45
2019-03-06T07:12:00.291Z,100709.81
2019-03-06T07:14:40.088Z,100710.48
2019-03-06T07:17:12.126Z,100720.91
2019-03-06T07:19:47.162Z,100710.50
2019-03-06T07:22:22.694Z,100717.45
2019-03-06T07:25:03.251Z,100728.19
2019-03-06T07:27:42.407Z,100725.23
2019-03-06T07:30:21.445Z,100725.62
2019-03-06T07:33:12.211Z,100726.23
2019-03-06T07:36:08.433Z,100732.13
2019-03-06T07:38:38.859Z,100728.87
2019-03-06T07:41:20.935Z,100722.91
2019-03-06T07:43:52.921Z,100727.92
2019-03-06T07:46:43.245Z,100731.53
2019-03-06T07:49:28.535Z,100740.80
2019-03-06T07:52:04.766Z,100745.19
2019-03-06T07:54:36.829Z,100750.97
2019-03-06T07:57:11.823Z,100749.25
2019-03-06T07:59:42.084Z,100750.84
2019-03-06T08:02:18.214Z,100749.53
2019-03-06T08:04:53.707Z,100749.91
2019-03-06T08:07:24.153Z,100751.94
2019-03-06T08:09:55.573Z,100750.84
2019-03-06T08:12:32.236Z,100752.98
2019-03-06T08:15:08.991Z,100756.80
2019-03-06T08:17:53.020Z,100763.30
2019-03-06T08:20:30.046Z,100764.41
2019-03-06T08:23:01.969Z,100758.00
2019-03-06T08:25:34.780Z,100760.08
2019-03-06T08:28:05.235Z,100751.53
2019-03-06T08:30:56.688Z,100758.20
2019-03-06T08:33:28.408Z,100753.62
2019-03-06T08:35:59.848Z,100755.48
2019-03-06T08:38:32.236Z,100753.83
2019-03-06T08:41:04.630Z,100755.10
2019-03-06T08:43:34.818Z,100763.28
2019-03-06T08:46:18.931Z,100757.19
2019-03-06T08:48:53.192Z,100763.14
2019-03-06T08:51:43.663Z,100764.78
2019-03-06T08:54:15.771Z,100769.73
2019-03-06T08:56:47.811Z,100776.23
2019-03-06T08:59:22.403Z,100775.38
2019-03-06T09:02:15.540Z,100785.16
2019-03-06T09:04:44.304Z,100786.02
2019-03-06T09:07:16.659Z,100784.39
2019-03-06T09:09:51.651Z,100790.84
2019-03-06T09:12:27.516Z,100782.22
2019-03-06T09:15:08.613Z,100779.19
2019-03-06T09:17:55.555Z,100777.41
2019-03-06T09:20:44.692Z,100767.32
2019-03-06T09:23:28.472Z,100770.59
2019-03-06T09:26:12.366Z,100772.50
2019-03-06T09:29:01.313Z,100773.37
2019-03-06T09:31:34.690Z,100772.06
2019-03-06T09:34:13.804Z,100767.38
2019-03-06T09:37:01.960Z,100770.13
2019-03-06T09:39:36.794Z,100766.73
2019-03-06T09:42:18.424Z,100772.33
2019-03-06T09:44:52.813Z,100771.70
2019-03-06T09:47:34.045Z,100766.34
2019-03-06T09:50:10.885Z,100762.48
2019-03-06T09:52:47.423Z,100753.16
2019-03-06T09:55:19.449Z,100752.30
2019-03-06T09:57:51.537Z,100743.15
2019-03-06T10:00:35.508Z,100756.03
2019-03-06T10:03:07.653Z,100744.70
2019-03-06T10:05:40.929Z,100741.04
2019-03-06T10:08:21.979Z,100735.04
2019-03-06T10:10:57.581Z,100743.38
2019-03-06T10:13:30.353Z,100736.64
2019-03-06T10:16:09.574Z,100729.39
2019-03-06T10:18:41.583Z,100730.56
2019-03-06T10:21:13.179Z,100725.04
2019-03-06T10:23:44.664Z,100715.88
2019-03-06T10:26:16.083Z,100722.14
2019-03-06T10:28:47.555Z,100721.58
2019-03-06T10:31:18.402Z,100724.61
2019-03-06T10:33:49.846Z,100723.56
2019-03-06T10:36:21.272Z,100710.48
2019-03-06T10:38:53.216Z,100703.97
2019-03-06T10:41:23.893Z,100697.07
2019-03-06T10:43:54.422Z,100691.41
2019-03-06T10:46:24.969Z,100695.81
2019-03-06T10:48:56.400Z,100706.43
2019-03-06T10:51:27.838Z,100698.36
2019-03-06T10:53:59.615Z,100687.19
2019-03-06T10:56:31.044Z,100692.91
2019-03-06T10:59:03.255Z,100702.41
2019-03-06T11:01:33.645Z,100703.94
2019-03-06T11:04:06.756Z,100695.84
2019-03-06T11:06:37.160Z,100699.08
2019-03-06T11:09:10.559Z,100690.80
2019-03-06T11:11:41.008Z,100693.75
2019-03-06T11:14:12.758Z,100687.23
2019-03-06T11:16:43.886Z,100686.77
2019-03-06T11:19:15.964Z,100683.14
2019-03-06T11:21:46.488Z,100671.91
2019-03-06T11:24:17.960Z,100669.69
2019-03-06T11:26:49.376Z,100663.33
2019-03-06T11:29:20.845Z,100655.58
2019-03-06T11:31:52.276Z,100658.24
2019-03-06T11:34:23.752Z,100649.49
2019-03-06T11:36:55.186Z,100653.34
2019-03-06T11:39:26.961Z,100649.95
2019-03-06T11:41:58.394Z,100640.23
2019-03-06T11:44:29.864Z,100639.12
2019-03-06T11:47:01.400Z,100633.47
2019-03-06T11:49:34.618Z,100629.87
2019-03-06T11:52:05.124Z,100634.72
2019-03-06T11:54:36.588Z,100625.89
2019-03-06T11:57:07.247Z,100635.88
2019-03-06T11:59:38.985Z,100621.18
2019-03-06T12:02:09.700Z,100621.18
2019-03-06T12:04:41.193Z,100624.45
2019-03-06T12:07:11.689Z,100618.63
2019-03-06T12:09:42.231Z,100611.25
2019-03-06T12:12:13.656Z,100613.26
2019-03-06T12:14:44.204Z,100618.09
2019-03-06T12:17:15.952Z,100598.25
2019-03-06T12:19:47.421Z,100593.16
2019-03-06T12:22:17.976Z,100583.39
2019-03-06T12:24:50.015Z,100584.93
2019-03-06T12:27:20.349Z,100571.65
2019-03-06T12:29:50.766Z,100561.95
2019-03-06T12:32:22.196Z,100559.56
2019-03-06T12:34:52.472Z,100558.16
2019-03-06T12:37:22.958Z,100548.55
2019-03-06T12:39:53.522Z,100540.77
2019-03-06T12:42:25.236Z,100540.97
2019-03-06T12:44:55.789Z,100533.16
2019-03-06T12:47:26.316Z,100515.08
2019-03-06T12:50:05.444Z,100520.84
2019-03-06T12:52:30.846Z,100508.91
2019-03-06T12:55:00.975Z,100505.89
2019-03-06T12:57:31.500Z,100507.17
2019-03-06T13:00:02.348Z,100506.45
2019-03-06T13:02:33.166Z,100508.81
2019-03-06T13:05:05.704Z,100507.29
2019-03-06T13:07:36.068Z,100495.01
2019-03-06T13:10:10.437Z,100503.28
2019-03-06T13:12:40.830Z,100498.72
2019-03-06T13:15:23.465Z,100495.87
2019-03-06T13:17:55.817Z,100486.23
2019-03-06T13:20:26.240Z,100490.20
2019-03-06T13:22:57.681Z,100485.88
2019-03-06T13:25:29.150Z,100482.88
2019-03-06T13:27:59.408Z,100485.89
2019-03-06T13:30:31.405Z,100479.09
2019-03-06T13:33:15.750Z,100477.34
2019-03-06T13:35:46.030Z,100474.70
2019-03-06T13:38:16.290Z,100465.97
2019-03-06T13:40:47.993Z,100466.58
2019-03-06T13:43:18.524Z,100461.02
2019-03-06T13:45:49.134Z,100447.44
2019-03-06T13:48:20.484Z,100451.42
2019-03-06T13:50:51.032Z,100445.74
2019-03-06T13:53:21.559Z,100439.94
2019-03-06T13:55:53.015Z,100441.03
2019-03-06T13:58:23.523Z,100438.09
2019-03-06T14:00:54.987Z,100430.77
2019-03-06T14:03:25.522Z,100427.71
2019-03-06T14:05:56.069Z,100427.77
2019-03-06T14:08:26.569Z,100428.03
2019-03-06T14:10:57.113Z,100426.17
2019-03-06T14:13:28.554Z,100434.15
2019-03-06T14:15:59.111Z,100435.73
2019-03-06T14:18:30.219Z,100424.28
2019-03-06T14:21:01.689Z,100428.17
2019-03-06T14:23:47.796Z,100407.54
2019-03-06T14:26:19.034Z,100409.01
2019-03-06T14:29:02.870Z,100406.09
2019-03-06T14:31:38.450Z,100400.82
2019-03-06T14:34:08.739Z,100394.38
2019-03-06T14:36:40.205Z,100389.20
2019-03-06T14:39:25.265Z,100387.44
2019-03-06T14:41:57.003Z,100380.23
2019-03-06T14:44:27.434Z,100381.95
2019-03-06T14:46:58.911Z,100385.33
2019-03-06T14:49:30.573Z,100376.08
2019-03-06T14:52:07.146Z,100378.39
2019-03-06T14:54:34.464Z,100369.68
2019-03-06T14:57:06.859Z,100371.52
2019-03-06T14:59:37.378Z,100382.65
2019-03-06T15:02:07.916Z,100380.75
2019-03-06T15:04:39.349Z,100373.80
2019-03-06T15:07:13.493Z,100368.78
2019-03-06T15:09:46.865Z,100366.45
2019-03-06T15:12:18.338Z,100357.70
2019-03-06T15:14:50.093Z,100349.00
2019-03-06T15:17:21.544Z,100339.89
2019-03-06T15:19:53.055Z,100326.64
2019-03-06T15:22:27.955Z,100324.23
2019-03-06T15:25:01.408Z,100327.63
2019-03-06T15:27:34.730Z,100320.55
2019-03-06T15:30:08.302Z,100312.20
2019-03-06T15:32:39.783Z,100305.69
2019-03-06T15:35:12.727Z,100303.67
2019-03-06T15:37:44.295Z,100295.38
2019-03-06T15:40:33.073Z,100295.03
2019-03-06T15:43:06.665Z,100297.53
2019-03-06T15:45:40.014Z,100275.50
2019-03-06T15:48:11.845Z,100285.13
2019-03-06T15:50:45.972Z,100287.55
2019-03-06T15:53:24.585Z,100277.08
2019-03-06T15:55:52.757Z,100277.28
2019-03-06T15:58:26.399Z,100276.47
2019-03-06T16:01:00.676Z,100282.07
2019-03-06T16:03:31.597Z,100270.66
2019-03-06T16:06:03.031Z,100274.00
2019-03-06T16:08:33.604Z,100272.91
2019-03-06T16:11:06.695Z,100269.86
2019-03-06T16:13:39.312Z,100258.88
2019-03-06T16:16:11.002Z,100259.44
2019-03-06T16:18:43.185Z,100260.09
2019-03-06T16:21:14.514Z,100257.50
2019-03-06T16:23:46.919Z,100260.70
2019-03-06T16:26:18.324Z,100266.04
2019-03-06T16:28:49.836Z,100268.04
2019-03-06T16:31:20.337Z,100265.44
2019-03-06T16:33:51.815Z,100258.95
2019-03-06T16:36:23.387Z,100253.41
2019-03-06T16:38:54.685Z,100255.74
2019-03-06T16:41:24.946Z,100247.98
2019-03-06T16:43:55.438Z,100235.91
2019-03-06T16:46:26.872Z,100239.43
2019-03-06T16:48:57.415Z,100232.05
2019-03-06T16:51:28.843Z,100232.91
2019-03-06T16:53:59.708Z,100230.79
2019-03-06T16:56:31.436Z,100230.47
2019-03-06T16:59:03.972Z,100229.36
2019-03-06T17:01:37.414Z,100234.50
2019-03-06T17:04:07.963Z,100233.01
2019-03-06T17:06:39.431Z,100228.25
2019-03-06T17:09:11.371Z,100237.97
2019-03-06T17:11:44.662Z,100235.09
2019-03-06T17:14:16.854Z,100236.69
2019-03-06T17:16:49.083Z,100233.77
2019-03-06T17:19:21.904Z,100227.68
2019-03-06T17:21:52.422Z,100226.92
2019-03-06T17:24:22.961Z,100223.10
2019-03-06T17:26:53.991Z,100225.59
2019-03-06T17:29:24.663Z,100221.08
2019-03-06T17:31:54.925Z,100219.47
2019-03-06T17:34:25.368Z,100208.67
2019-03-06T17:36:55.814Z,100200.11
2019-03-06T17:39:26.138Z,100188.52
2019-03-06T17:41:57.566Z,100179.09
2019-03-06T17:44:29.056Z,100177.91
2019-03-06T17:46:59.335Z,100167.92
2019-03-06T17:49:30.630Z,100172.15
2019-03-06T17:52:00.931Z,100177.97
2019-03-06T17:54:33.306Z,100180.40
2019-03-06T17:57:04.791Z,100187.25
2019-03-06T17:59:37.430Z,100185.99
2019-03-06T18:02:07.951Z,100178.30
2019-03-06T18:04:38.219Z,100179.15
2019-03-06T18:07:09.639Z,100182.05
2019-03-06T18:09:41.073Z,100188.34
2019-03-06T18:12:17.040Z,100179.27
2019-03-06T18:14:47.359Z,100171.96
2019-03-06T18:17:17.646Z,100163.86
2019-03-06T18:19:48.115Z,100164.03
2019-03-06T18:22:19.614Z,100167.02
2019-03-06T18:24:51.017Z,100162.50
2019-03-06T18:27:26.371Z,100148.98
2019-03-06T18:29:54.630Z,100150.41
2019-03-06T18:32:25.609Z,100140.56
2019-03-06T18:34:58.393Z,100146.78
2019-03-06T18:37:30.443Z,100143.84
2019-03-06T18:40:01.098Z,100140.00
2019-03-06T18:42:34.769Z,100142.90
2019-03-06T18:45:12.388Z,100137.33
2019-03-06T18:47:45.273Z,100139.00
2019-03-06T18:50:25.235Z,100142.69
2019-03-06T18:52:55.772Z,100124.95
2019-03-06T18:55:28.008Z,100121.64
2019-03-06T18:57:58.728Z,100114.02
2019-03-06T19:00:30.835Z,100112.80
2019-03-06T19:03:02.143Z,100110.07
2019-03-06T19:05:34.252Z,100100.74
2019-03-06T19:08:06.500Z,100092.02
2019-03-06T19:10:37.124Z,100092.59
2019-03-06T19:13:08.769Z,100083.97
2019-03-06T19:15:39.104Z,100079.55
2019-03-06T19:18:09.379Z,100076.28
2019-03-06T19:20:40.077Z,100074.45
2019-03-06T19:23:12.044Z,100067.72
2019-03-06T19:25:44.782Z,100068.14
2019-03-06T19:28:15.116Z,100075.13
2019-03-06T19:30:49.454Z,100068.56
2019-03-06T19:33:19.887Z,100067.24
2019-03-06T19:35:53.740Z,100063.30
2019-03-06T19:38:25.228Z,100054.99
2019-03-06T19:40:56.684Z,100046.89
2019-03-06T19:43:28.148Z,100043.69
2019-03-06T19:46:02.053Z,100038.84
2019-03-06T19:48:38.423Z,100036.21
2019-03-06T19:51:11.795Z,100035.22
2019-03-06T19:53:42.651Z,100032.95
2019-03-06T19:56:13.084Z,100038.05
2019-03-06T19:58:44.648Z,100027.84
2019-03-06T20:01:15.147Z,100023.39
2019-03-06T20:03:45.872Z,100018.02
2019-03-06T20:06:16.433Z,100015.01
2019-03-06T20:08:47.566Z,100013.33
2019-03-06T20:11:18.285Z,100021.85
2019-03-06T20:13:50.148Z,100022.48
2019-03-06T20:16:23.570Z,100022.48
2019-03-06T20:18:55.303Z,100019.41
2019-03-06T20:21:25.761Z,100017.05
2019-03-06T20:23:58.105Z,100020.99
2019-03-06T20:26:28.864Z,100022.22
2019-03-06T20:28:59.171Z,100017.10
2019-03-06T20:31:29.712Z,100015.28
2019-03-06T20:34:00.225Z,100011.01
2019-03-06T20:36:31.080Z,100010.91
2019-03-06T20:39:01.581Z,100009.06
2019-03-06T20:41:34.912Z,100001.17
2019-03-06T20:44:06.077Z,100005.14
2019-03-06T20:46:36.613Z,100001.55
2019-03-06T20:49:08.346Z,99999.19
2019-03-06T20:51:39.056Z,99994.83
2019-03-06T20:54:10.311Z,99992.67
2019-03-06T20:56:42.411Z,99991.84
2019-03-06T20:59:12.943Z,99989.98
2019-03-06T21:01:43.541Z,99988.09
2019-03-06T21:04:17.264Z,99982.84
2019-03-06T21:06:49.115Z,99974.95
2019-03-06T21:09:20.549Z,99971.22
2019-03-06T21:11:51.115Z,99964.11
2019-03-06T21:14:23.101Z,99957.53
2019-03-06T21:16:56.280Z,99953.59
2019-03-06T21:19:27.596Z,99949.73
2019-03-06T21:21:58.482Z,99956.64
2019-03-06T21:24:30.178Z,99951.05
2019-03-06T21:27:02.730Z,99944.39
2019-03-06T21:29:33.689Z,99935.42
2019-03-06T21:32:05.158Z,99936.11
2019-03-06T21:34:36.891Z,99932.70
2019-03-06T21:37:07.519Z,99922.60
2019-03-06T21:39:38.261Z,99922.19
2019-03-06T21:42:08.901Z,99919.50
2019-03-06T21:44:39.338Z,99914.93
2019-03-06T21:47:10.819Z,99910.33
2019-03-06T21:49:42.256Z,99902.95
2019-03-06T21:52:14.619Z,99911.02
2019-03-06T21:54:46.412Z,99904.29
2019-03-06T21:57:22.962Z,99889.20
2019-03-06T22:00:01.167Z,99894.80
2019-03-06T22:02:33.608Z,99892.02
2019-03-06T22:05:06.049Z,99890.12
2019-03-06T22:07:36.519Z,99879.70
2019-03-06T22:10:12.031Z,99882.06
2019-03-06T22:12:48.569Z,99873.61
2019-03-06T22:15:22.089Z,99867.37
2019-03-06T22:17:54.023Z,99868.20
2019-03-06T22:20:25.097Z,99867.37
2019-03-06T22:22:55.703Z,99860.27
2019-03-06T22:25:28.349Z,99858.73
2019-03-06T22:28:00.728Z,99856.32
2019-03-06T22:30:32.199Z,99858.11
2019-03-06T22:33:02.739Z,99844.34
2019-03-06T22:35:32.977Z,99846.82
2019-03-06T22:38:06.439Z,99847.09
2019-03-06T22:40:45.500Z,99846.20
2019-03-06T22:43:17.423Z,99840.58
2019-03-06T22:45:49.805Z,99841.21
2019-03-06T22:48:21.561Z,99836.61
2019-03-06T22:50:52.999Z,99834.41
2019-03-06T22:53:23.538Z,99825.63
2019-03-06T22:55:54.968Z,99814.84
2019-03-06T22:58:25.520Z,99808.22
2019-03-06T23:00:59.951Z,99802.59
2019-03-06T23:03:31.819Z,99788.44
2019-03-06T23:06:04.228Z,99791.34
2019-03-06T23:08:34.711Z,99795.70
2019-03-06T23:11:06.134Z,99791.14
2019-03-06T23:13:38.531Z,99789.25
2019-03-06T23:16:08.780Z,99786.69
2019-03-06T23:18:39.281Z,99783.95
2019-03-06T23:21:09.801Z,99777.23
2019-03-06T23:23:41.585Z,99776.86
2019-03-06T23:26:12.076Z,99764.30
2019-03-06T23:28:43.551Z,99758.98
2019-03-06T23:31:14.985Z,99757.67
2019-03-06T23:33:46.450Z,99754.41
2019-03-06T23:36:17.881Z,99750.59
2019-03-06T23:38:48.133Z,99743.82
2019-03-06T23:41:19.558Z,99738.51
2019-03-06T23:43:51.007Z,99733.91
2019-03-06T23:46:21.543Z,99727.89
2019-03-06T23:48:52.067Z,99733.29
2019-03-06T23:51:25.157Z,99725.20
2019-03-06T23:53:55.586Z,99720.84
2019-03-06T23:56:26.116Z,99714.70
2019-03-06T23:58:59.411Z,99707.52
